createdAt,value
2022-08-26T03:56:19.995Z,1.00
2022-08-26T03:57:19.985Z,1.00
2022-08-26T03:58:19.975Z,1.00
2022-08-26T03:59:19.964Z,1.00
2022-08-26T04:04:22.793Z,2.00
2022-08-26T04:05:19.900Z,2.00
2022-08-26T04:06:19.889Z,2.00
2022-08-26T04:09:19.858Z,4.00
2022-08-26T04:11:19.841Z,2.00
2022-08-26T04:12:19.830Z,5.00
2022-08-26T04:13:19.819Z,9.00
2022-08-26T04:14:20.224Z,11.00
2022-08-26T04:15:19.796Z,7.00
2022-08-26T04:16:19.865Z,4.00
2022-08-26T04:17:19.778Z,4.00
2022-08-26T04:18:19.771Z,15.00
2022-08-26T04:19:19.758Z,13.00
2022-08-26T04:20:19.748Z,20.00
2022-08-26T04:21:19.734Z,23.00
2022-08-26T04:22:24.825Z,30.00
2022-08-26T04:23:19.714Z,37.00
2022-08-26T04:24:19.705Z,41.00
2022-08-26T04:25:20.509Z,40.00
2022-08-26T04:26:19.686Z,51.00
2022-08-26T04:27:19.671Z,44.00
2022-08-26T04:28:19.663Z,43.00
2022-08-26T04:29:19.651Z,51.00
2022-08-26T04:30:19.639Z,60.00
2022-08-26T04:31:19.683Z,71.00
2022-08-26T04:32:19.620Z,85.00
2022-08-26T04:33:19.611Z,112.00
2022-08-26T04:34:20.622Z,125.00
2022-08-26T04:35:25.465Z,150.00
2022-08-26T04:36:20.600Z,162.00
2022-08-26T04:37:19.567Z,200.00
2022-08-26T04:38:19.557Z,224.00
2022-08-26T04:39:19.546Z,265.00
2022-08-26T04:40:19.602Z,302.00
2022-08-26T04:41:19.527Z,334.00
2022-08-26T04:42:25.998Z,374.00
2022-08-26T04:43:20.529Z,416.00
2022-08-26T04:44:19.496Z,452.00
2022-08-26T04:45:22.642Z,504.00
2022-08-26T04:46:19.517Z,556.00
2022-08-26T04:47:19.465Z,617.00
2022-08-26T04:48:19.450Z,679.00
2022-08-26T04:49:19.441Z,731.00
2022-08-26T04:50:19.430Z,796.00
2022-08-26T04:51:19.424Z,850.00
2022-08-26T04:52:19.412Z,914.00
2022-08-26T04:53:19.400Z,985.00
2022-08-26T04:54:19.392Z,1056.00
2022-08-26T04:55:19.382Z,1112.00
2022-08-26T04:56:19.369Z,1177.00
2022-08-26T04:57:19.361Z,1240.00
2022-08-26T04:58:19.349Z,1309.00
2022-08-26T04:59:19.338Z,1378.00
2022-08-26T05:00:19.328Z,1464.00
2022-08-26T05:01:19.357Z,1512.00
2022-08-26T05:02:19.312Z,1591.00
2022-08-26T05:03:19.298Z,1669.00
2022-08-26T05:04:19.387Z,1717.00
2022-08-26T05:05:19.276Z,1788.00
2022-08-26T05:06:19.266Z,1852.00
2022-08-26T05:07:19.256Z,1926.00
2022-08-26T05:08:19.249Z,1994.00
2022-08-26T05:09:19.238Z,2052.00
2022-08-26T05:10:19.224Z,2131.00
2022-08-26T05:11:19.214Z,2210.00
2022-08-26T05:12:19.203Z,2270.00
2022-08-26T05:13:19.195Z,2336.00
2022-08-26T05:14:19.183Z,2410.00
2022-08-26T05:15:19.176Z,2459.00
2022-08-26T05:16:19.208Z,2535.00
2022-08-26T05:17:19.151Z,2601.00
2022-08-26T05:18:20.023Z,2673.00
2022-08-26T05:19:19.590Z,2736.00
2022-08-26T05:20:22.712Z,2798.00
2022-08-26T05:21:19.111Z,2844.00
2022-08-26T05:22:19.096Z,2916.00
2022-08-26T05:23:19.090Z,2977.00
2022-08-26T05:24:19.077Z,3028.00
2022-08-26T05:25:19.069Z,3076.00
2022-08-26T05:26:23.075Z,3123.00
2022-08-26T05:27:19.047Z,3177.00
2022-08-26T05:28:19.040Z,3221.00
2022-08-26T05:29:19.026Z,3264.00
2022-08-26T05:30:19.014Z,3320.00
2022-08-26T05:31:19.092Z,3365.00
2022-08-26T05:32:18.992Z,3426.00
2022-08-26T05:33:18.984Z,3460.00
2022-08-26T05:34:18.974Z,3513.00
2022-08-26T05:35:18.963Z,3551.00
2022-08-26T05:36:18.952Z,3603.00
2022-08-26T05:37:18.940Z,3636.00
2022-08-26T05:38:18.929Z,3685.00
2022-08-26T05:39:18.923Z,3729.00
2022-08-26T05:40:19.013Z,3767.00
2022-08-26T05:41:18.899Z,3812.00
2022-08-26T05:42:18.889Z,3852.00
2022-08-26T05:43:18.879Z,3896.00
2022-08-26T05:44:18.876Z,3934.00
2022-08-26T05:45:18.858Z,4005.00
2022-08-26T05:46:18.926Z,4044.00
2022-08-26T05:47:18.836Z,4099.00
2022-08-26T05:48:18.826Z,4139.00
2022-08-26T05:49:18.816Z,4186.00
2022-08-26T05:50:18.808Z,4223.00
2022-08-26T05:51:20.887Z,4263.00
2022-08-26T05:52:18.785Z,4301.00
2022-08-26T05:53:18.776Z,4348.00
2022-08-26T05:54:21.895Z,4403.00
2022-08-26T05:55:18.752Z,4461.00
2022-08-26T05:56:18.743Z,4537.00
2022-08-26T05:57:18.733Z,4581.00
2022-08-26T05:58:18.729Z,4633.00
2022-08-26T05:59:23.942Z,4681.00
2022-08-26T06:00:19.727Z,4731.00
2022-08-26T06:01:18.730Z,4804.00
2022-08-26T06:02:18.726Z,4881.00
2022-08-26T06:03:18.745Z,4946.00
2022-08-26T06:04:18.662Z,5019.00
2022-08-26T06:05:18.651Z,5086.00
2022-08-26T06:06:20.200Z,5161.00
2022-08-26T06:07:19.658Z,5239.00
2022-08-26T06:08:19.402Z,5355.00
2022-08-26T06:09:18.614Z,5430.00
2022-08-26T06:10:32.087Z,5498.00
2022-08-26T06:11:19.614Z,5607.00
2022-08-26T06:12:18.607Z,5699.00
2022-08-26T06:13:18.568Z,5795.00
2022-08-26T06:14:18.559Z,5870.00
2022-08-26T06:15:18.551Z,5924.00
2022-08-26T06:16:18.613Z,5986.00
2022-08-26T06:17:18.529Z,6066.00
2022-08-26T06:18:18.521Z,6115.00
2022-08-26T06:19:18.511Z,6171.00
2022-08-26T06:20:18.502Z,6237.00
2022-08-26T06:21:18.489Z,6285.00
2022-08-26T06:22:23.315Z,6333.00
2022-08-26T06:23:18.470Z,6388.00
2022-08-26T06:24:18.462Z,6442.00
2022-08-26T06:25:18.451Z,6481.00
2022-08-26T06:26:18.440Z,6522.00
2022-08-26T06:27:18.431Z,6560.00
2022-08-26T06:28:18.418Z,6614.00
2022-08-26T06:29:24.481Z,6647.00
2022-08-26T06:30:19.422Z,6683.00
2022-08-26T06:31:18.467Z,6737.00
2022-08-26T06:32:18.380Z,6771.00
2022-08-26T06:33:18.368Z,6805.00
2022-08-26T06:34:18.369Z,6856.00
2022-08-26T06:35:18.348Z,6892.00
2022-08-26T06:36:18.702Z,6949.00
2022-08-26T06:37:18.329Z,7007.00
2022-08-26T06:38:18.319Z,7046.00
2022-08-26T06:39:18.308Z,7089.00
2022-08-26T06:40:18.346Z,7133.00
2022-08-26T06:41:18.284Z,7189.00
2022-08-26T06:42:18.275Z,7241.00
2022-08-26T06:43:18.269Z,7284.00
2022-08-26T06:44:18.252Z,7321.00
2022-08-26T06:45:18.242Z,7362.00
2022-08-26T06:46:18.265Z,7387.00
2022-08-26T06:47:18.220Z,7407.00
2022-08-26T06:48:18.216Z,7418.00
2022-08-26T06:49:18.205Z,7479.00
2022-08-26T06:50:19.210Z,7584.00
2022-08-26T06:51:18.179Z,7552.00
2022-08-26T06:52:22.965Z,7655.00
2022-08-26T06:53:18.154Z,7723.00
2022-08-26T06:54:18.145Z,7823.00
2022-08-26T06:55:18.136Z,7924.00
2022-08-26T06:56:18.126Z,8056.00
2022-08-26T06:57:18.118Z,8316.00
2022-08-26T06:58:18.106Z,8399.00
2022-08-26T06:59:18.093Z,8425.00
2022-08-26T07:00:18.083Z,8450.00
2022-08-26T07:01:18.229Z,8498.00
2022-08-26T07:02:18.188Z,8545.00
2022-08-26T07:03:18.155Z,8575.00
2022-08-26T07:04:20.263Z,8631.00
2022-08-26T07:05:18.032Z,8654.00
2022-08-26T07:06:18.022Z,8714.00
2022-08-26T07:07:18.015Z,8756.00
2022-08-26T07:08:18.002Z,8803.00
2022-08-26T07:09:17.991Z,8857.00
2022-08-26T07:10:17.983Z,8914.00
2022-08-26T07:11:17.975Z,8951.00
2022-08-26T07:12:17.961Z,9023.00
2022-08-26T07:13:17.948Z,9153.00
2022-08-26T07:14:19.308Z,9144.00
2022-08-26T07:15:17.933Z,9202.00
2022-08-26T07:16:19.075Z,9256.00
2022-08-26T07:17:17.913Z,9329.00
2022-08-26T07:18:17.899Z,9414.00
2022-08-26T07:19:17.888Z,9531.00
2022-08-26T07:20:18.900Z,9962.00
2022-08-26T07:21:18.217Z,10535.00
2022-08-26T07:22:17.860Z,10884.00
2022-08-26T07:23:17.850Z,10963.00
2022-08-26T07:24:17.841Z,11202.00
2022-08-26T07:25:17.835Z,11177.00
2022-08-26T07:26:17.816Z,11474.00
2022-08-26T07:27:17.809Z,11630.00
2022-08-26T07:28:17.799Z,11552.00
2022-08-26T07:29:17.789Z,11629.00
2022-08-26T07:30:17.777Z,11719.00
2022-08-26T07:31:17.878Z,11993.00
2022-08-26T07:32:17.761Z,11799.00
2022-08-26T07:33:17.749Z,11663.00
2022-08-26T07:34:17.738Z,11436.00
2022-08-26T07:35:17.727Z,11689.00
2022-08-26T07:36:17.716Z,11663.00
2022-08-26T07:37:17.748Z,11477.00
2022-08-26T07:38:17.698Z,12388.00
2022-08-26T07:39:17.683Z,12361.00
2022-08-26T07:40:17.753Z,12562.00
2022-08-26T07:41:17.683Z,12544.00
2022-08-26T07:42:18.436Z,12539.00
2022-08-26T07:43:17.642Z,12738.00
2022-08-26T07:44:17.651Z,13057.00
2022-08-26T07:45:17.624Z,13098.00
2022-08-26T07:46:17.614Z,13294.00
2022-08-26T07:47:24.687Z,13413.00
2022-08-26T07:48:18.620Z,13186.00
2022-08-26T07:49:17.625Z,13192.00
2022-08-26T07:50:17.572Z,13427.00
2022-08-26T07:51:17.565Z,13761.00
2022-08-26T07:52:17.563Z,14056.00
2022-08-26T07:53:19.407Z,14235.00
2022-08-26T07:54:17.532Z,13952.00
2022-08-26T07:55:17.526Z,13762.00
2022-08-26T07:56:17.511Z,13864.00
2022-08-26T07:57:17.500Z,13952.00
2022-08-26T07:58:17.493Z,14143.00
2022-08-26T07:59:17.486Z,14031.00
2022-08-26T08:00:17.472Z,14108.00
2022-08-26T08:01:17.519Z,14627.00
2022-08-26T08:02:17.450Z,14289.00
2022-08-26T08:03:17.443Z,14546.00
2022-08-26T08:04:17.443Z,14618.00
2022-08-26T08:05:17.480Z,14481.00
2022-08-26T08:06:17.415Z,14582.00
2022-08-26T08:07:17.401Z,15083.00
2022-08-26T08:08:26.665Z,14596.00
2022-08-26T08:09:18.472Z,14454.00
2022-08-26T08:10:17.372Z,14281.00
2022-08-26T08:11:17.361Z,14056.00
2022-08-26T08:12:17.357Z,14058.00
2022-08-26T08:13:17.344Z,13993.00
2022-08-26T08:14:17.332Z,14243.00
2022-08-26T08:15:17.322Z,14147.00
2022-08-26T08:16:17.490Z,13776.00
2022-08-26T08:17:17.306Z,13479.00
2022-08-26T08:18:17.294Z,13305.00
2022-08-26T08:19:17.286Z,13875.00
2022-08-26T08:20:17.278Z,14736.00
2022-08-26T08:21:21.794Z,14872.00
2022-08-26T08:22:19.917Z,14651.00
2022-08-26T08:23:17.245Z,14633.00
2022-08-26T08:24:17.249Z,14460.00
2022-08-26T08:25:17.222Z,14492.00
2022-08-26T08:26:17.219Z,14306.00
2022-08-26T08:27:20.196Z,14290.00
2022-08-26T08:28:18.213Z,14461.00
2022-08-26T08:29:17.181Z,14521.00
2022-08-26T08:30:22.648Z,14514.00
2022-08-26T08:31:19.091Z,14535.00
2022-08-26T08:32:17.155Z,14670.00
2022-08-26T08:33:17.146Z,14637.00
2022-08-26T08:34:18.208Z,14599.00
2022-08-26T08:35:17.126Z,14615.00
2022-08-26T08:36:18.573Z,14663.00
2022-08-26T08:37:17.108Z,14761.00
2022-08-26T08:38:17.099Z,14804.00
2022-08-26T08:39:17.092Z,14877.00
2022-08-26T08:40:17.149Z,14967.00
2022-08-26T08:41:17.075Z,15068.00
2022-08-26T08:42:17.060Z,15162.00
2022-08-26T08:43:17.051Z,15266.00
2022-08-26T08:44:17.079Z,15327.00
2022-08-26T08:45:17.031Z,15377.00
2022-08-26T08:46:17.054Z,15492.00
2022-08-26T08:47:17.013Z,15520.00
2022-08-26T08:48:17.002Z,15693.00
2022-08-26T08:49:16.994Z,15695.00
2022-08-26T08:50:16.984Z,15786.00
2022-08-26T08:51:16.971Z,15863.00
2022-08-26T08:52:16.964Z,15858.00
2022-08-26T08:53:16.953Z,15810.00
2022-08-26T08:54:16.946Z,15834.00
2022-08-26T08:55:18.226Z,16043.00
2022-08-26T08:56:16.925Z,16204.00
2022-08-26T08:57:16.916Z,16063.00
2022-08-26T08:58:16.906Z,16146.00
2022-08-26T08:59:16.976Z,16290.00
2022-08-26T09:00:16.888Z,16382.00
2022-08-26T09:01:16.897Z,16509.00
2022-08-26T09:02:16.989Z,16634.00
2022-08-26T09:03:16.861Z,16630.00
2022-08-26T09:04:17.187Z,16769.00
2022-08-26T09:05:16.843Z,16783.00
2022-08-26T09:06:16.831Z,16953.00
2022-08-26T09:07:16.826Z,17052.00
2022-08-26T09:08:16.815Z,17237.00
2022-08-26T09:09:16.852Z,17399.00
2022-08-26T09:10:16.902Z,17545.00
2022-08-26T09:11:16.784Z,17717.00
2022-08-26T09:12:16.775Z,17808.00
2022-08-26T09:13:22.465Z,17918.00
2022-08-26T09:14:17.780Z,17994.00
2022-08-26T09:15:16.747Z,18094.00
2022-08-26T09:16:18.947Z,18097.00
2022-08-26T09:17:16.731Z,18024.00
2022-08-26T09:18:16.718Z,18173.00
2022-08-26T09:19:18.816Z,18108.00
2022-08-26T09:20:16.706Z,18207.00
2022-08-26T09:21:16.696Z,18394.00
2022-08-26T09:22:16.755Z,18613.00
2022-08-26T09:23:16.679Z,18821.00
2022-08-26T09:24:16.667Z,18983.00
2022-08-26T09:25:16.658Z,19291.00
2022-08-26T09:26:16.650Z,19400.00
2022-08-26T09:27:16.641Z,19398.00
2022-08-26T09:28:16.631Z,19437.00
2022-08-26T09:29:16.713Z,19518.00
2022-08-26T09:30:16.665Z,19910.00
2022-08-26T09:31:16.680Z,20833.00
2022-08-26T09:32:16.596Z,23015.00
2022-08-26T09:33:16.639Z,27119.00
2022-08-26T09:34:17.260Z,27192.00
2022-08-26T09:35:16.568Z,24723.00
2022-08-26T09:36:16.559Z,23159.00
2022-08-26T09:37:16.571Z,22939.00
2022-08-26T09:38:16.889Z,22521.00
2022-08-26T09:39:16.530Z,22263.00
2022-08-26T09:40:16.731Z,21642.00
2022-08-26T09:41:16.512Z,21067.00
2022-08-26T09:42:16.785Z,21133.00
2022-08-26T09:43:22.175Z,21297.00
2022-08-26T09:44:17.505Z,21223.00
2022-08-26T09:45:17.043Z,21434.00
2022-08-26T09:46:16.596Z,22215.00
2022-08-26T09:47:16.563Z,23368.00
2022-08-26T09:48:16.612Z,23928.00
2022-08-26T09:49:16.443Z,22681.00
2022-08-26T09:50:16.456Z,21984.00
2022-08-26T09:51:16.423Z,21646.00
2022-08-26T09:52:16.431Z,21236.00
2022-08-26T09:53:16.409Z,21342.00
2022-08-26T09:54:16.395Z,21899.00
2022-08-26T09:55:16.761Z,21947.00
2022-08-26T09:56:16.378Z,22040.00
2022-08-26T09:57:16.373Z,21781.00
2022-08-26T09:58:16.362Z,21649.00
2022-08-26T09:59:16.353Z,21951.00
2022-08-26T10:00:16.390Z,21981.00
2022-08-26T10:01:16.421Z,21884.00
2022-08-26T10:02:16.327Z,22599.00
2022-08-26T10:03:17.436Z,23366.00
2022-08-26T10:04:16.339Z,23601.00
2022-08-26T10:05:16.297Z,24410.00
2022-08-26T10:06:16.293Z,24419.00
2022-08-26T10:07:16.288Z,24745.00
2022-08-26T10:08:16.271Z,25553.00
2022-08-26T10:09:16.262Z,26443.00
2022-08-26T10:10:16.316Z,27670.00
2022-08-26T10:11:16.347Z,27535.00
2022-08-26T10:12:16.239Z,27749.00
2022-08-26T10:13:16.242Z,28341.00
2022-08-26T10:14:16.218Z,28254.00
2022-08-26T10:15:16.211Z,28102.00
2022-08-26T10:16:16.261Z,29241.00
2022-08-26T10:17:16.202Z,30234.00
2022-08-26T10:18:16.186Z,30330.00
2022-08-26T10:19:16.177Z,30215.00
2022-08-26T10:20:22.782Z,30588.00
2022-08-26T10:21:17.958Z,32177.00
2022-08-26T10:22:16.151Z,32565.00
2022-08-26T10:23:16.152Z,33468.00
2022-08-26T10:24:16.137Z,34917.00
2022-08-26T10:25:16.147Z,38677.00
2022-08-26T10:26:16.165Z,39575.00
2022-08-26T10:27:16.162Z,39368.00
2022-08-26T10:28:16.104Z,40799.00
2022-08-26T10:29:16.139Z,41687.00
2022-08-26T10:30:16.136Z,41214.00
2022-08-26T10:31:16.079Z,39489.00
2022-08-26T10:32:16.143Z,39039.00
2022-08-26T10:33:18.053Z,38032.00
2022-08-26T10:34:16.056Z,35246.00
2022-08-26T10:35:16.049Z,36628.00
2022-08-26T10:36:16.040Z,36949.00
2022-08-26T10:37:16.745Z,33967.00
2022-08-26T10:38:16.022Z,35602.00
2022-08-26T10:39:16.013Z,33083.00
2022-08-26T10:40:16.146Z,36173.00
2022-08-26T10:41:16.939Z,36812.00
2022-08-26T10:42:15.985Z,36684.00
2022-08-26T10:43:15.978Z,35373.00
2022-08-26T10:44:15.969Z,35186.00
2022-08-26T10:45:15.962Z,36908.00
2022-08-26T10:46:16.069Z,39755.00
2022-08-26T10:47:15.944Z,35719.00
2022-08-26T10:48:15.935Z,38148.00
2022-08-26T10:49:15.923Z,38586.00
2022-08-26T10:50:15.915Z,40481.00
2022-08-26T10:51:15.906Z,41133.00
2022-08-26T10:52:16.514Z,41260.00
2022-08-26T10:53:15.889Z,40815.00
2022-08-26T10:54:15.880Z,39972.00
2022-08-26T10:55:15.873Z,40554.00
2022-08-26T10:56:19.228Z,38500.00
2022-08-26T10:57:15.854Z,38587.00
2022-08-26T10:58:26.422Z,38733.00
2022-08-26T10:59:16.860Z,37040.00
2022-08-26T11:00:15.879Z,37693.00
2022-08-26T11:01:15.884Z,38211.00
2022-08-26T11:02:15.810Z,36269.00
2022-08-26T11:03:22.629Z,35668.00
2022-08-26T11:04:16.900Z,35524.00
2022-08-26T11:05:15.783Z,35388.00
2022-08-26T11:06:15.781Z,37858.00
2022-08-26T11:07:15.763Z,36626.00
2022-08-26T11:08:15.758Z,36968.00
2022-08-26T11:09:15.748Z,36519.00
2022-08-26T11:10:15.736Z,35537.00
2022-08-26T11:11:15.727Z,34804.00
2022-08-26T11:12:15.722Z,33546.00
2022-08-26T11:13:15.762Z,32056.00
2022-08-26T11:14:15.707Z,33173.00
2022-08-26T11:15:15.698Z,32722.00
2022-08-26T11:16:16.084Z,33434.00
2022-08-26T11:17:15.685Z,33881.00
2022-08-26T11:18:15.727Z,34394.00
2022-08-26T11:19:15.666Z,33856.00
2022-08-26T11:20:15.657Z,35821.00
2022-08-26T11:21:15.656Z,35844.00
2022-08-26T11:22:15.645Z,35258.00
2022-08-26T11:23:15.631Z,36532.00
2022-08-26T11:24:15.723Z,35379.00
2022-08-26T11:25:15.621Z,33664.00
2022-08-26T11:26:35.519Z,40658.00
2022-08-26T11:27:16.627Z,32373.00
2022-08-26T11:28:15.593Z,33181.00
2022-08-26T11:29:15.623Z,33578.00
2022-08-26T11:30:15.577Z,33098.00
2022-08-26T11:31:15.606Z,34094.00
2022-08-26T11:32:15.657Z,37208.00
2022-08-26T11:33:15.551Z,42660.00
2022-08-26T11:34:15.542Z,38448.00
2022-08-26T11:35:15.534Z,37764.00
2022-08-26T11:36:15.525Z,32735.00
2022-08-26T11:37:15.581Z,35862.00
2022-08-26T11:38:15.509Z,32404.00
2022-08-26T11:39:15.496Z,30584.00
2022-08-26T11:40:15.540Z,29377.00
2022-08-26T11:41:15.485Z,28427.00
2022-08-26T11:42:15.472Z,28482.00
2022-08-26T11:43:15.464Z,33826.00
2022-08-26T11:44:15.457Z,31635.00
2022-08-26T11:45:15.448Z,35621.00
2022-08-26T11:46:15.517Z,34950.00
2022-08-26T11:47:15.427Z,42863.00
2022-08-26T11:48:15.420Z,44002.00
2022-08-26T11:49:15.411Z,39426.00
2022-08-26T11:50:15.403Z,46324.00
2022-08-26T11:51:15.392Z,44753.00
2022-08-26T11:52:15.396Z,46716.00
2022-08-26T11:53:15.377Z,42562.00
2022-08-26T11:54:15.970Z,45447.00
2022-08-26T11:55:15.361Z,46417.00
2022-08-26T11:56:15.351Z,46368.00
2022-08-26T11:57:15.342Z,48937.00
2022-08-26T11:58:15.336Z,50414.00
2022-08-26T11:59:15.323Z,51717.00
2022-08-26T12:00:19.129Z,53904.00
2022-08-26T12:01:16.333Z,52731.00
2022-08-26T12:02:15.310Z,53320.00
2022-08-26T12:03:29.765Z,54648.00
2022-08-26T12:04:15.397Z,49495.00
2022-08-26T12:05:15.274Z,52160.00
2022-08-26T12:08:44.949Z,50429.00
2022-08-26T12:08:46.360Z,50343.00
2022-08-26T12:09:46.351Z,52629.00
2022-08-26T12:10:46.346Z,55019.00
2022-08-26T12:12:36.014Z,51286.00
2022-08-26T12:12:46.328Z,49763.00
2022-08-26T12:13:46.320Z,49947.00
2022-08-26T12:14:46.314Z,53754.00
2022-08-26T12:15:46.305Z,50270.00
2022-08-26T12:16:46.359Z,50853.00
2022-08-26T12:18:41.430Z,47333.00
2022-08-26T12:18:46.409Z,47885.00
2022-08-26T12:19:46.397Z,50613.00
2022-08-26T12:20:46.390Z,47517.00
2022-08-26T12:21:46.382Z,45332.00
2022-08-26T12:22:48.203Z,45829.00
2022-08-26T12:23:46.782Z,46869.00
2022-08-26T12:24:46.361Z,47869.00
2022-08-26T12:25:46.350Z,44724.00
2022-08-26T12:26:46.341Z,46601.00
2022-08-26T12:27:48.676Z,46320.00
2022-08-26T12:28:47.347Z,44620.00
2022-08-26T12:29:48.460Z,46828.00
2022-08-26T12:30:46.314Z,48495.00
2022-08-26T12:31:46.389Z,46731.00
2022-08-26T12:32:56.548Z,45521.00
2022-08-26T12:33:47.308Z,48797.00
2022-08-26T12:34:46.281Z,46838.00
2022-08-26T12:36:54.033Z,50117.00
2022-08-26T12:36:55.583Z,50126.00
2022-08-26T12:37:55.504Z,49335.00
2022-08-26T12:38:58.242Z,51086.00
2022-08-26T12:39:55.519Z,48569.00
2022-08-26T12:40:55.480Z,52504.00
2022-08-26T12:41:55.473Z,47900.00
2022-08-26T12:42:55.463Z,45925.00
2022-08-26T12:43:55.456Z,49379.00
2022-08-26T12:44:55.447Z,49222.00
2022-08-26T12:45:55.536Z,48647.00
2022-08-26T12:46:55.429Z,46273.00
2022-08-26T12:47:55.425Z,45408.00
2022-08-26T12:48:55.419Z,43535.00
2022-08-26T12:49:55.409Z,47750.00
2022-08-26T12:50:55.400Z,45664.00
2022-08-26T12:51:55.391Z,47804.00
2022-08-26T12:52:55.384Z,47814.00
2022-08-26T12:53:55.381Z,45169.00
2022-08-26T12:54:56.982Z,44803.00
2022-08-26T12:55:55.359Z,46593.00
2022-08-26T12:56:55.351Z,45910.00
2022-08-26T12:57:55.338Z,40875.00
2022-08-26T12:58:55.436Z,50543.00
2022-08-26T13:06:36.753Z,53126.00
2022-08-26T13:06:38.151Z,52962.00
2022-08-26T13:23:40.604Z,53438.00
2022-08-26T13:23:43.617Z,52776.00
2022-08-26T13:24:42.586Z,50665.00
2022-08-26T13:25:42.579Z,45032.00
2022-08-26T13:26:42.573Z,43397.00
2022-08-26T13:27:42.565Z,45660.00
2022-08-26T13:28:42.555Z,49169.00
2022-08-26T13:29:42.550Z,48992.00
2022-08-26T13:30:42.538Z,52981.00
2022-08-26T13:37:02.446Z,53615.00
2022-08-26T13:37:03.846Z,52927.00
2022-08-26T13:38:03.845Z,47149.00
2022-08-26T13:39:03.830Z,48933.00
2022-08-26T13:40:03.894Z,43712.00
2022-08-26T13:41:03.814Z,37709.00
2022-08-26T13:42:03.808Z,36874.00
2022-08-26T13:43:03.797Z,31083.00
2022-08-26T13:44:03.793Z,33137.00
2022-08-26T13:45:03.784Z,44639.00
2022-08-26T13:53:47.626Z,53027.00
2022-08-26T13:53:49.027Z,52702.00
2022-08-26T13:54:49.019Z,37199.00
2022-08-26T13:55:49.008Z,43699.00
2022-08-26T13:56:49.001Z,37249.00
2022-08-26T14:12:57.333Z,51162.00
2022-08-26T14:12:58.703Z,47109.00
2022-08-26T14:13:58.693Z,34191.00
2022-08-26T14:15:54.197Z,60502.00
2022-08-26T14:15:58.803Z,49833.00
2022-08-26T14:21:23.660Z,60692.00
2022-08-26T14:21:25.070Z,56031.00
2022-08-26T14:22:25.061Z,29973.00
2022-08-26T14:23:25.227Z,30301.00
2022-08-26T14:24:25.047Z,48813.00
2022-08-26T14:35:56.035Z,48203.00
2022-08-26T14:35:57.439Z,47348.00
2022-08-26T14:36:57.759Z,50597.00
2022-08-26T14:37:58.541Z,41891.00
2022-08-26T14:38:57.410Z,40528.00
2022-08-26T14:39:57.453Z,40547.00
2022-08-26T14:40:57.396Z,34523.00
2022-08-26T14:41:57.388Z,35232.00
2022-08-26T14:42:58.881Z,36607.00
2022-08-26T14:43:57.370Z,29664.00
2022-08-26T14:44:57.364Z,37748.00
2022-08-26T14:45:57.355Z,36413.00
2022-08-26T14:46:57.432Z,38718.00
2022-08-26T14:47:57.341Z,39724.00
2022-08-26T14:48:57.335Z,31259.00
2022-08-26T14:49:57.323Z,32443.00
2022-08-26T14:50:57.316Z,33687.00
2022-08-26T14:51:57.308Z,33208.00
2022-08-26T14:52:57.296Z,31318.00
2022-08-26T14:53:57.291Z,33133.00
2022-08-26T14:54:57.286Z,29666.00
2022-08-26T14:55:57.280Z,27292.00
2022-08-26T14:56:57.269Z,29450.00
2022-08-26T14:57:57.257Z,26005.00
2022-08-26T14:58:57.252Z,23433.00
2022-08-26T14:59:57.242Z,22388.00
2022-08-26T15:00:57.234Z,20723.00
2022-08-26T15:01:57.389Z,20456.00
2022-08-26T15:02:57.393Z,18227.00
2022-08-26T15:03:57.208Z,16487.00
2022-08-26T15:04:57.197Z,16030.00
2022-08-26T15:05:57.191Z,14790.00
2022-08-26T15:06:57.181Z,14911.00
2022-08-26T15:07:57.172Z,14579.00
2022-08-26T15:08:57.162Z,14347.00
2022-08-26T15:09:57.155Z,14033.00
2022-08-26T15:10:57.142Z,13423.00
2022-08-26T15:11:57.137Z,12920.00
2022-08-26T15:12:57.124Z,12849.00
2022-08-26T15:13:57.121Z,12525.00
2022-08-26T15:14:57.112Z,12615.00
2022-08-26T15:15:57.147Z,12432.00
2022-08-26T15:16:57.093Z,11969.00
2022-08-26T15:17:57.082Z,11768.00
2022-08-26T15:18:57.069Z,11593.00
2022-08-26T15:19:57.063Z,11302.00
2022-08-26T15:20:57.052Z,11025.00
2022-08-26T15:21:57.044Z,10724.00
2022-08-26T15:22:58.233Z,10393.00
2022-08-26T15:23:57.024Z,10079.00
2022-08-26T15:24:57.014Z,9837.00
2022-08-26T15:25:57.007Z,9661.00
2022-08-26T15:26:56.995Z,9553.00
2022-08-26T15:27:56.989Z,9498.00
2022-08-26T15:28:56.979Z,9478.00
2022-08-26T15:29:56.967Z,9477.00
2022-08-26T15:30:57.029Z,9422.00
2022-08-26T15:31:57.469Z,9360.00
2022-08-26T15:32:56.939Z,9318.00
2022-08-26T15:33:56.929Z,9299.00
2022-08-26T15:34:56.921Z,9264.00
2022-08-26T15:35:56.909Z,9247.00
2022-08-26T15:36:56.900Z,9240.00
2022-08-26T15:37:56.897Z,9293.00
2022-08-26T15:38:56.881Z,9525.00
2022-08-26T15:39:56.921Z,10006.00
2022-08-26T15:40:58.728Z,10293.00
2022-08-26T15:41:56.848Z,10199.00
2022-08-26T15:43:11.292Z,9956.00
2022-08-26T15:43:57.851Z,9869.00
2022-08-26T15:44:56.826Z,9835.00
2022-08-26T15:45:56.812Z,9849.00
2022-08-26T15:46:58.862Z,9761.00
2022-08-26T15:48:01.491Z,9569.00
2022-08-26T15:48:57.806Z,9256.00
2022-08-26T15:49:56.771Z,8929.00
2022-08-26T15:50:56.761Z,8561.00
2022-08-26T15:51:56.753Z,8217.00
2022-08-26T15:52:56.747Z,7927.00
2022-08-26T15:53:56.784Z,7718.00
2022-08-26T15:54:56.749Z,7546.00
2022-08-26T15:55:56.715Z,7354.00
2022-08-26T15:56:56.709Z,7182.00
2022-08-26T15:57:56.696Z,7024.00
2022-08-26T15:58:56.685Z,6863.00
2022-08-26T15:59:56.680Z,6705.00
2022-08-26T16:00:56.678Z,6536.00
2022-08-26T16:01:56.708Z,6392.00
2022-08-26T16:02:56.648Z,6248.00
2022-08-26T16:03:56.644Z,6128.00
2022-08-26T16:04:56.632Z,6007.00
2022-08-26T16:05:56.696Z,5920.00
2022-08-26T16:06:56.609Z,5834.00
2022-08-26T16:07:56.599Z,5758.00
2022-08-26T16:08:56.589Z,5723.00
2022-08-26T16:09:56.579Z,5706.00
2022-08-26T16:10:56.568Z,5726.00
2022-08-26T16:11:56.556Z,5722.00
2022-08-26T16:12:56.546Z,5724.00
2022-08-26T16:13:56.540Z,5708.00
2022-08-26T16:14:56.530Z,5682.00
2022-08-26T16:15:56.588Z,5623.00
2022-08-26T16:16:56.510Z,5531.00
2022-08-26T16:17:56.498Z,5414.00
2022-08-26T16:18:56.487Z,5273.00
2022-08-26T16:19:56.481Z,5107.00
2022-08-26T16:21:12.558Z,4963.00
2022-08-26T16:21:57.481Z,4813.00
2022-08-26T16:22:56.448Z,4703.00
2022-08-26T16:23:56.437Z,4608.00
2022-08-26T16:24:56.430Z,4511.00
2022-08-26T16:25:56.416Z,4404.00
2022-08-26T16:26:56.410Z,4302.00
2022-08-26T16:27:56.399Z,4194.00
2022-08-26T16:28:56.390Z,4095.00
2022-08-26T16:29:56.382Z,3992.00
2022-08-26T16:30:56.384Z,3872.00
2022-08-26T16:31:56.358Z,3734.00
2022-08-26T16:32:56.351Z,3613.00
2022-08-26T16:33:56.337Z,3460.00
2022-08-26T16:34:57.060Z,3323.00
2022-08-26T16:35:56.322Z,3210.00
2022-08-26T16:36:56.310Z,3110.00
2022-08-26T16:37:56.302Z,3041.00
2022-08-26T16:38:56.473Z,2969.00
2022-08-26T16:39:56.367Z,2924.00
2022-08-26T16:40:56.271Z,2883.00
2022-08-26T16:41:56.259Z,2838.00
2022-08-26T16:42:56.250Z,2770.00
2022-08-26T16:43:56.240Z,2714.00
2022-08-26T16:44:56.233Z,2654.00
2022-08-26T16:45:56.315Z,2588.00
2022-08-26T16:46:58.818Z,2532.00
2022-08-26T16:47:56.201Z,2482.00
2022-08-26T16:48:56.189Z,2431.00
2022-08-26T16:49:56.179Z,2406.00
2022-08-26T16:50:56.170Z,2372.00
2022-08-26T16:51:56.161Z,2337.00
2022-08-26T16:52:56.150Z,2320.00
2022-08-26T16:53:56.157Z,2301.00
2022-08-26T16:54:56.127Z,2290.00
2022-08-26T16:55:56.121Z,2291.00
2022-08-26T16:56:56.113Z,2279.00
2022-08-26T16:57:56.111Z,2282.00
2022-08-26T16:58:56.092Z,2275.00